Lake Charles, LA (70601)

5:15 AM CST on December 09, 2016 (GMT -0600)
LCB Academy | | Change Station
Active Advisory: Flood Warning

Elev 33 ft 30.22 °N, 93.20 °W | Updated 5 minutes ago

Mostly Cloudy
Mostly Cloudy
39.3 °F
Feels Like 34 °F
N
7.0
Wind Variable Wind from NW
Gusts 8.0 mph

Today
High -- | Low -- °F
--% Chance of Precip.
Yesterday
High -- | Low -- °F
Precip. -- in
Pressure 30.53 in
Visibility 7.0 miles
Clouds Clear
Windchill 34 °F
Dew Point 30 °F
Humidity 69%
Rainfall 0.00 in
Snow Depth Not available.
6:58 AM 5:12 PM
Waxing Gibbous, 73% visible
METAR KCWF 091015Z 03011G17KT 7SM CLR 02/M02 A3053 RMK AO2 T00291029 PWINO
Pressure 30.53 in
Visibility 7.0 miles
Clouds Clear
Windchill 34 °F
Dew Point 30 °F
Humidity 69%
Rainfall 0.00 in
Snow Depth Not available.
6:58 AM 5:12 PM
Waxing Gibbous, 73% visible
METAR KCWF 091015Z 03011G17KT 7SM CLR 02/M02 A3053 RMK AO2 T00291029 PWINO

10-Day Weather Forecast

Almanac

Astronomy

Dec. 09, 2016 Rise Set
Actual Time
Civil Twilight
Nautical Twilight
Astronomical Twilight
Moon
Length of Visible Light
Length of Day
Tomorrow will be .
, % of the Moon is Illuminated

Today's Extremes

State Highs State Lows

Community

WunderPhotos

Upload Photos

1,956,378 photos uploaded!

WunderBlog® & News

Nearby

Air Quality

  Air Quality AQ Index Pollutant
Not available.

Snow Depth

Station Depth Elevation

Earthquake Activity

City Distance Mag. Time & Date
Minimum magnitude displayed is 2.5.

Coastal Water Temperatures

Place Temperature

Stations

Nearby Weather Stations

Station Location Temp. Windchill Dew Point Humidity Wind Precip. Elev Updated Type
                   

Watches & Warnings

Flood Warning
Issued: 7:21 PM CST Dec. 8, 2016 – National Weather Service

The Flood Warning continues for
the Calcasieu River at Old Town Bay.
* Until further notice... or until the warning is cancelled.
* At 5:00 am Thursday the stage was 4.4 feet.
* Minor flooding is occurring and minor flooding is forecast.
* Flood stage is 4.0 feet.
* Forecast... the river will continue to fall to a stage of 3.8 feet
by Saturday morning.
* Impact... at stages near 4.0 feet... minor flooding of goos Ferry
Road will occur.
* Impact... at stages near 3.5 feet... ponding of water on low spots
along goos Ferry Road will occur.


Lat... Lon 3030 9329 3019 9321 3025 9308 3031 9303 3038 9314